Nearby METAR Reports

 

KAGC - Pittsburgh/Alleg, Pennsylvania, USA
Distance from station: N 14mi, 23km
Updated: Wed, Nov-22-2017 7:53pm EST
Overcast
Overcast
 Wind from NNW
Wind: NNW 8 mph , 13 km/h
Temperature: 32°F , 0°C
Wind Chill: 25°F , -4°C
Dew Point: 16°F , -9°C
Humidity: 51%
Barometer: 30.22 inHg , 1023.4 hPa
Clouds: Overcast
Visibility: 10 miles , 16 km
Cloud details: Overcast 3500 ft
2017/11/23 00:53 KAGC 230053Z 33007KT 10SM OVC035 00/M09 A3022 RMK AO2 SLP251 T00001089
KAFJ - Washington, Pennsylvania, USA
Distance from station: W 17mi, 28km
Updated: Wed, Nov-22-2017 7:56pm EST
Overcast
Overcast
 Wind from NNW
Wind: NNW 3 mph , 6 km/h
Temperature: 32°F , 0°C
Dew Point: 21°F , -6°C
Humidity: 64%
Barometer: 30.26 inHg , 1024.7 hPa
Clouds: Overcast
Visibility: 10 miles , 16 km
Cloud details: Overcast 3000 ft
2017/11/23 00:56 KAFJ 230056Z AUTO 33003KT 10SM OVC030 00/M06 A3026 RMK AO2 SLP259 T00001056 FZRANO
 
KLBE - Latrobe, Pennsylvania, USA
Distance from station: ENE 30mi, 48km
Updated: Wed, Nov-22-2017 7:45pm EST
Mostly cloudy
Mostly cloudy
 Wind from WNW
Wind: WNW 12 mph , 19 km/h
Temperature: 32°F , 0°C
Wind Chill: 23°F , -5°C
Dew Point: 23°F , -5°C
Humidity: 69%
Barometer: 30.24 inHg , 1024 hPa
Clouds: Mostly cloudy
Visibility: 10 miles , 16 km
Cloud details: Mostly cloudy 3200 ft
2017/11/23 00:45 KLBE 230045Z 30010KT 10SM BKN032 00/M05 A3024
KPIT - Pittsburgh, Pennsylvania, USA
Distance from station: NW 30mi, 48km
Updated: Wed, Nov-22-2017 7:51pm EST
Overcast
Overcast
 Wind from NNW
Wind: NNW 7 mph , 11 km/h
Temperature: 32°F , 0°C
Wind Chill: 25°F , -4°C
Dew Point: 19°F , -7°C
Humidity: 60%
Barometer: 30.23 inHg , 1023.7 hPa
Clouds: Overcast
Visibility: 10 miles , 16 km
Cloud details: Few Clouds 2900 ft
Overcast 3600 ft
2017/11/23 00:51 KPIT 230051Z 34006KT 10SM FEW029 OVC036 00/M07 A3023 RMK AO2 SLP258 T00001067 $
 
KMGW - Morgantown, West Virginia, USA
Distance from station: S 34mi, 55km
Updated: Wed, Nov-22-2017 7:53pm EST
Overcast
Overcast
 Wind from N
Wind: N 5 mph , 7 km/h
Temperature: 34°F , 1°C
Wind Chill: 29°F , -2°C
Dew Point: 21°F , -6°C
Humidity: 60%
Barometer: 30.24 inHg , 1024 hPa
Clouds: Overcast
Visibility: 10 miles , 16 km
Cloud details: Overcast 3200 ft
2017/11/23 00:53 KMGW 230053Z 35004KT 10SM OVC032 01/M06 A3024 RMK AO2 SLP250 T00061061
KHLG - Wheeling, West Virginia, USA
Distance from station: W 37mi, 60km
Updated: Wed, Nov-22-2017 7:53pm EST
Overcast
Overcast
 Wind from NW
Wind: NW 7 mph , 11 km/h
Temperature: 30°F , -1°C
Wind Chill: 23°F , -5°C
Dew Point: 19°F , -7°C
Humidity: 64%
Barometer: 30.24 inHg , 1024 hPa
Clouds: Overcast
Visibility: 10 miles , 16 km
Cloud details: Overcast 3200 ft
2017/11/23 00:53 KHLG 230053Z 31006KT 10SM OVC032 M01/M07 A3024 RMK AO2 SLP255 T10061072
 
KBTP - Butler Co., Pennsylvania, USA
Distance from station: N 43mi, 69km
Updated: Wed, Nov-22-2017 7:56pm EST
Overcast
Overcast
 Wind from W
Wind: W 3 mph , 6 km/h
Temperature: 30°F , -1°C
Dew Point: 21°F , -6°C
Humidity: 69%
Barometer: 30.23 inHg , 1023.7 hPa
Clouds: Overcast
Visibility: 10 miles , 16 km
Cloud details: Overcast 4000 ft
2017/11/23 00:56 KBTP 230056Z AUTO 27003KT 10SM OVC040 M01/M06 A3023 RMK AO2 SLP258 T10111061 FZRANO
KBVI - Beaver Falls Arp, Pennsylvania, USA
Distance from station: NNW 49mi, 79km
Updated: Wed, Nov-22-2017 7:47pm EST
Overcast
Overcast
 Wind from WNW
Wind: WNW 5 mph , 7 km/h
Barometer: 30.24 inHg , 1024 hPa
Clouds: Overcast
Visibility: 10 miles , 16 km
Cloud details: Overcast 3700 ft
2017/11/23 00:47 KBVI 230047Z 30004KT 10SM OVC037 A3024
 
K2G4 - Garrett Co, Maryland, USA
Distance from station: SE 51mi, 82km
Updated: Wed, Nov-22-2017 8:30pm EST
Overcast
Overcast
 Wind from WNW
Wind: WNW 8 mph , 13 km/h, Gust: 16 mph , 26 km/h
Temperature: 25°F , -4°C
Wind Chill: 16°F , -9°C
Dew Point: 19°F , -7°C
Humidity: 80%
Barometer: 30.09 inHg , 1019 hPa
Clouds: Overcast
Visibility: 10 miles , 16 km
Cloud details: Overcast 1600 ft
2017/11/23 01:30 K2G4 230130Z AUTO 30007G14KT 272V342 10SM OVC016 M04/M07 A3009 RMK AO1
KIDI - Indiana/Stewart, Pennsylvania, USA
Distance from station: NE 56mi, 90km
Updated: Wed, Nov-22-2017 8:35pm EST
Overcast
Overcast
 Wind from varies
Wind: varies 5 mph , 7 km/h
Temperature: 32°F , 0°C
Wind Chill: 27°F , -3°C
Dew Point: 21°F , -6°C
Humidity: 64%
Barometer: 30.23 inHg , 1023.7 hPa
Clouds: Overcast
Visibility: 10 miles , 16 km
Cloud details: Overcast 3200 ft
2017/11/23 01:35 KIDI 230135Z AUTO VRB04KT 10SM OVC032 M00/M06 A3023 RMK A01
 
KJST - Johnstown, Pennsylvania, USA
Distance from station: ENE 60mi, 96km
Updated: Wed, Nov-22-2017 7:54pm EST
Overcast
Overcast
 Wind from NW
Wind: NW 13 mph , 20 km/h
Temperature: 28°F , -2°C
Wind Chill: 17°F , -8°C
Dew Point: 21°F , -6°C
Humidity: 74%
Barometer: 30.14 inHg , 1020.7 hPa
Clouds: Overcast
Visibility: 10 miles , 16 km
Cloud details: Overcast 1900 ft
2017/11/23 00:54 KJST 230054Z AUTO 32011KT 10SM OVC019 M02/M06 A3014 RMK AO2 SLP229 T10221061
KCBE - Cumberland Reg, Maryland, USA
Distance from station: ESE 72mi, 116km
Updated: Wed, Nov-22-2017 8:26pm EST
Overcast
Overcast
 Wind from NW
Wind: NW 16 mph , 26 km/h, Gust: 25 mph , 41 km/h
Temperature: 36°F , 2°C
Wind Chill: 26°F , -3°C
Dew Point: 23°F , -5°C
Humidity: 60%
Barometer: 30.24 inHg , 1024 hPa
Clouds: Overcast
Visibility: 10 miles , 16 km
Cloud details: Overcast 3700 ft
2017/11/23 01:26 KCBE 230126Z AUTO 32014G22KT 281V341 10SM OVC037 02/M05 A3024 RMK AO1
 
KILG - Wilmington, Delaware, USA
Distance from station: ESE 234mi, 377km
Updated: Wed, Nov-22-2017 7:51pm EST
Few Clouds
Few Clouds
 Wind from NW
Wind: NW 12 mph , 19 km/h
Temperature: 39°F , 4°C
Wind Chill: 32°F , 0°C
Dew Point: 25°F , -4°C
Humidity: 56%
Barometer: 30.12 inHg , 1020 hPa
Clouds: Few Clouds
Visibility: 10 miles , 16 km
Cloud details: Few Clouds 4600 ft
2017/11/23 00:51 KILG 230051Z 32010KT 10SM FEW046 04/M04 A3012 RMK AO2 SLP198 T00441039
KTUS - Tucson, Arizona, USA
Distance from station: WSW 1806mi, 3283km
Updated: Wed, Nov-22-2017 7:53pm EST
Clear
Clear
 Wind from ENE
Wind: ENE 5 mph , 7 km/h
Temperature: 77°F , 25°C
Dew Point: 19°F , -7°C
Humidity: 11%
Barometer: 30.14 inHg , 1020.7 hPa
Clouds: Clear
Visibility: 10 miles , 16 km
2017/11/23 00:53 KTUS 230053Z 06004KT 10SM CLR 25/M07 A3014 RMK AO2 SLP173 T02501072